createdAt,value
2022-12-27T08:57:51.073Z,4.40
2022-12-27T09:00:19.593Z,5.30
2022-12-27T09:02:47.812Z,5.00
2022-12-27T09:05:15.933Z,4.80
2022-12-27T09:07:44.097Z,4.70
2022-12-27T09:10:12.287Z,4.50
2022-12-27T09:12:40.300Z,4.50
2022-12-27T09:15:10.772Z,4.50
2022-12-27T09:17:38.809Z,4.50
2022-12-27T09:20:08.289Z,4.60
2022-12-27T09:22:36.519Z,4.70
2022-12-27T09:25:04.804Z,4.80
2022-12-27T09:27:32.879Z,5.80
2022-12-27T09:30:00.795Z,6.40
2022-12-27T09:32:30.089Z,6.80
2022-12-27T09:34:57.948Z,6.80
2022-12-27T09:37:25.878Z,6.30
2022-12-27T09:39:59.970Z,5.70
2022-12-27T09:42:52.249Z,5.50
2022-12-27T09:45:21.769Z,5.30
2022-12-27T09:47:53.600Z,5.30
2022-12-27T09:50:25.125Z,5.40
2022-12-27T09:52:57.150Z,5.30
2022-12-27T09:55:30.209Z,5.30
2022-12-27T09:58:00.005Z,5.40
2022-12-27T10:00:30.937Z,5.50
2022-12-27T10:03:05.850Z,5.60
2022-12-27T10:05:35.639Z,5.50
2022-12-27T10:08:13.691Z,5.40
2022-12-27T10:10:43.627Z,5.40
2022-12-27T10:13:21.482Z,5.40
2022-12-27T10:15:52.346Z,5.40
2022-12-27T10:18:28.092Z,5.60
2022-12-27T10:21:00.196Z,5.70
2022-12-27T10:23:30.397Z,5.60
2022-12-27T10:25:59.400Z,5.60
2022-12-27T10:28:30.789Z,5.60
2022-12-27T10:31:01.820Z,5.80
2022-12-27T10:33:31.661Z,5.80
2022-12-27T10:35:59.719Z,5.70
2022-12-27T10:38:33.170Z,5.70
2022-12-27T10:41:07.715Z,5.50
2022-12-27T10:43:38.146Z,5.60
2022-12-27T10:46:13.085Z,5.60
2022-12-27T10:49:18.968Z,5.80
2022-12-27T10:51:35.732Z,5.90
2022-12-27T10:54:04.220Z,6.10
2022-12-27T10:56:36.344Z,6.10
2022-12-27T10:59:12.351Z,6.20
2022-12-27T11:01:40.681Z,6.00
2022-12-27T11:04:20.195Z,6.10
2022-12-27T11:06:49.966Z,5.90
2022-12-27T11:09:29.319Z,6.00
2022-12-27T11:12:14.036Z,5.90
2022-12-27T11:14:42.016Z,6.10
2022-12-27T11:17:11.388Z,5.90
2022-12-27T11:19:41.965Z,6.10
2022-12-27T11:22:09.889Z,6.10
2022-12-27T11:24:37.714Z,6.20
2022-12-27T11:27:05.565Z,6.30
2022-12-27T11:29:33.589Z,6.20
2022-12-27T11:32:06.190Z,6.30
2022-12-27T11:34:34.785Z,6.30
2022-12-27T11:37:06.633Z,6.30
2022-12-27T11:39:41.973Z,6.20
2022-12-27T11:42:14.039Z,6.30
2022-12-27T11:44:43.453Z,6.10
2022-12-27T11:47:13.280Z,6.20
2022-12-27T11:49:43.727Z,6.30
2022-12-27T11:52:35.012Z,6.20
2022-12-27T11:55:19.218Z,6.20
2022-12-27T11:58:00.623Z,6.40
2022-12-27T12:00:29.198Z,6.50
2022-12-27T12:03:03.188Z,6.60
2022-12-27T12:05:48.479Z,6.50
2022-12-27T12:08:33.154Z,6.40
2022-12-27T12:11:05.476Z,6.50
2022-12-27T12:14:01.083Z,6.60
2022-12-27T12:16:50.917Z,6.70
2022-12-27T12:19:29.434Z,6.80
2022-12-27T12:22:04.412Z,6.80
2022-12-27T12:24:48.283Z,6.80
2022-12-27T12:27:27.367Z,6.80
2022-12-27T12:30:27.094Z,6.80
2022-12-27T12:33:05.927Z,6.70
2022-12-27T12:35:41.640Z,6.60
2022-12-27T12:38:18.178Z,6.60
2022-12-27T12:41:21.382Z,6.70
2022-12-27T12:44:17.112Z,6.60
2022-12-27T12:46:46.841Z,6.50
2022-12-27T12:49:28.109Z,6.70
2022-12-27T12:52:11.729Z,6.80
2022-12-27T12:54:59.011Z,6.80
2022-12-27T12:57:38.047Z,6.90
2022-12-27T13:00:13.746Z,6.70
2022-12-27T13:03:12.009Z,6.60
2022-12-27T13:05:42.177Z,6.60
2022-12-27T13:08:14.137Z,6.60
2022-12-27T13:11:04.728Z,6.60
2022-12-27T13:13:40.784Z,6.70
2022-12-27T13:16:15.831Z,6.70
2022-12-27T13:18:49.034Z,6.80
2022-12-27T13:21:21.628Z,7.10
2022-12-27T13:23:57.588Z,7.10
2022-12-27T13:26:29.163Z,7.00
2022-12-27T13:29:09.322Z,7.00
2022-12-27T13:31:44.010Z,6.80
2022-12-27T13:34:21.515Z,6.70
2022-12-27T13:37:01.374Z,6.80
2022-12-27T13:39:37.391Z,6.90
2022-12-27T13:42:39.275Z,6.90
2022-12-27T13:45:19.558Z,6.80
2022-12-27T13:48:06.993Z,6.70
2022-12-27T13:51:11.495Z,6.60
2022-12-27T13:54:03.109Z,6.70
2022-12-27T13:59:47.698Z,6.70
2022-12-27T14:02:53.758Z,6.70
2022-12-27T14:05:41.949Z,6.70
2022-12-27T14:08:13.511Z,6.80
2022-12-27T14:10:43.358Z,6.70
2022-12-27T14:13:12.532Z,6.70
2022-12-27T14:16:20.391Z,6.70
2022-12-27T14:19:00.211Z,6.70
2022-12-27T14:21:48.516Z,6.60
2022-12-27T14:24:22.502Z,6.70
2022-12-27T14:27:17.944Z,6.70
2022-12-27T14:30:13.787Z,6.60
2022-12-27T14:33:10.358Z,6.50
2022-12-27T14:36:16.464Z,6.40
2022-12-27T14:38:55.320Z,6.40
2022-12-27T14:41:49.432Z,7.00
2022-12-27T14:44:38.697Z,6.80
2022-12-27T14:47:27.671Z,6.80
2022-12-27T14:50:44.582Z,6.70
2022-12-27T14:53:36.832Z,6.40
2022-12-27T14:56:13.708Z,6.60
2022-12-27T14:58:59.582Z,6.40
2022-12-27T15:01:39.497Z,6.30
2022-12-27T15:04:23.477Z,6.30
2022-12-27T15:07:15.315Z,6.30
2022-12-27T15:09:47.603Z,6.10
2022-12-27T15:12:19.541Z,6.00
2022-12-27T15:15:04.265Z,6.00
2022-12-27T15:17:41.365Z,6.00
2022-12-27T15:20:32.066Z,6.10
2022-12-27T15:23:05.397Z,6.10
2022-12-27T15:25:43.286Z,6.00
2022-12-27T15:28:14.123Z,6.00
2022-12-27T15:30:47.584Z,6.10
2022-12-27T15:33:17.881Z,5.90
2022-12-27T15:35:53.610Z,5.70
2022-12-27T15:38:41.264Z,5.50
2022-12-27T15:41:37.331Z,5.70
2022-12-27T15:45:00.736Z,5.50
2022-12-27T15:47:50.056Z,5.60
2022-12-27T15:50:30.718Z,5.20
2022-12-27T15:53:09.730Z,5.00
2022-12-27T15:56:03.688Z,4.90
2022-12-27T15:58:33.412Z,5.00
2022-12-27T16:01:34.419Z,5.10
2022-12-27T16:04:02.867Z,5.10
2022-12-27T16:06:50.951Z,5.00
2022-12-27T16:09:36.580Z,5.00
2022-12-27T16:12:06.949Z,5.00
2022-12-27T16:14:37.493Z,5.00
2022-12-27T16:17:25.585Z,5.00
2022-12-27T16:21:14.909Z,4.90
2022-12-27T16:23:02.240Z,4.70
2022-12-27T16:25:33.182Z,4.60
2022-12-27T16:28:06.339Z,4.60
2022-12-27T16:30:41.617Z,4.60
2022-12-27T16:33:22.072Z,4.60
2022-12-27T16:36:08.248Z,4.50
2022-12-27T16:38:36.413Z,4.50
2022-12-27T16:41:14.196Z,4.40
2022-12-27T16:43:54.525Z,4.50
2022-12-27T16:46:45.504Z,4.50
2022-12-27T16:49:44.689Z,4.50
2022-12-27T16:52:47.870Z,4.30
2022-12-27T16:55:50.369Z,4.30
2022-12-27T16:58:33.203Z,4.40
2022-12-27T17:01:01.790Z,4.30
2022-12-27T17:03:46.542Z,4.20
2022-12-27T17:06:51.821Z,4.00
2022-12-27T17:09:39.324Z,4.10
2022-12-27T17:12:11.372Z,4.10
2022-12-27T17:14:39.333Z,4.00
2022-12-27T17:17:10.099Z,4.00
2022-12-27T17:19:41.281Z,4.00
2022-12-27T17:22:11.859Z,3.70
2022-12-27T17:24:39.932Z,3.70
2022-12-27T17:27:13.849Z,3.80
2022-12-27T17:30:05.464Z,3.80
2022-12-27T17:32:49.377Z,3.80
2022-12-27T17:35:27.155Z,3.70
2022-12-27T17:38:07.600Z,3.70
2022-12-27T17:40:38.304Z,3.80
2022-12-27T17:43:46.791Z,3.80
2022-12-27T17:46:22.701Z,3.70
2022-12-27T17:48:50.728Z,3.60
2022-12-27T17:51:25.044Z,3.70
2022-12-27T17:54:11.469Z,3.70
2022-12-27T17:57:04.428Z,3.60
2022-12-27T17:59:34.059Z,3.50
2022-12-27T18:02:05.049Z,3.50
2022-12-27T18:04:34.762Z,3.40
2022-12-27T18:07:05.207Z,3.40
2022-12-27T18:09:38.302Z,3.40
2022-12-27T18:12:13.312Z,3.50
2022-12-27T18:14:41.185Z,3.50
2022-12-27T18:17:15.936Z,3.60
2022-12-27T18:19:44.064Z,3.70
2022-12-27T18:22:13.719Z,4.10
2022-12-27T18:24:42.059Z,3.90
2022-12-27T18:27:17.746Z,3.90
2022-12-27T18:29:45.894Z,3.80
2022-12-27T18:32:14.900Z,3.60
2022-12-27T18:34:45.766Z,3.50
2022-12-27T18:37:21.296Z,3.50
2022-12-27T18:39:51.122Z,3.30
2022-12-27T18:42:20.307Z,3.40
2022-12-27T18:44:49.497Z,3.40
2022-12-27T18:47:20.966Z,3.50
2022-12-27T18:49:55.873Z,3.40
2022-12-27T18:52:27.653Z,3.30
2022-12-27T18:54:57.259Z,3.20
2022-12-27T19:00:17.664Z,3.20
2022-12-27T19:02:46.049Z,3.30
2022-12-27T19:05:25.698Z,2.80
2022-12-27T19:08:09.053Z,2.60
2022-12-27T19:10:37.254Z,2.60
2022-12-27T19:13:05.227Z,2.80
2022-12-27T19:15:38.535Z,2.90
2022-12-27T19:18:18.412Z,2.90
2022-12-27T19:23:49.403Z,2.80
2022-12-27T19:24:05.085Z,2.90
2022-12-27T19:26:26.881Z,2.80
2022-12-27T19:29:03.211Z,2.80
2022-12-27T19:31:31.509Z,2.80
2022-12-27T19:34:01.072Z,2.60
2022-12-27T19:36:31.751Z,2.60
2022-12-27T19:39:01.221Z,2.60
2022-12-27T19:41:29.723Z,2.70
2022-12-27T19:43:57.819Z,2.60
2022-12-27T19:46:30.901Z,2.60
2022-12-27T19:51:47.848Z,2.70
2022-12-27T19:54:25.122Z,2.80
2022-12-27T19:56:53.401Z,2.80
2022-12-27T19:59:22.304Z,2.70
2022-12-27T20:01:50.761Z,2.70
2022-12-27T20:04:19.230Z,2.50
2022-12-27T20:06:48.736Z,2.60
2022-12-27T20:09:19.532Z,2.60
2022-12-27T20:11:47.877Z,2.40
2022-12-27T20:14:17.792Z,2.30
2022-12-27T20:16:46.661Z,2.40
2022-12-27T20:19:16.560Z,2.30
2022-12-27T20:21:44.877Z,2.40
2022-12-27T20:24:13.658Z,2.40
2022-12-27T20:26:43.306Z,2.40
2022-12-27T20:29:11.734Z,2.00
2022-12-27T20:32:05.101Z,1.90
2022-12-27T20:34:33.577Z,2.00
2022-12-27T20:37:01.980Z,1.90
2022-12-27T20:39:30.058Z,1.80
2022-12-27T20:42:47.648Z,1.70
2022-12-27T20:45:20.529Z,1.90
2022-12-27T20:47:48.956Z,1.90
2022-12-27T20:50:17.348Z,1.70
2022-12-27T20:52:45.501Z,1.70
2022-12-27T20:55:13.979Z,1.80
2022-12-27T20:57:42.541Z,1.70
2022-12-27T21:00:12.393Z,1.70
2022-12-27T21:02:42.302Z,1.90
2022-12-27T21:05:10.864Z,1.60
2022-12-27T21:07:39.350Z,1.40
2022-12-27T21:10:09.401Z,1.50
2022-12-27T21:12:37.613Z,1.60
2022-12-27T21:15:08.403Z,1.60
2022-12-27T21:17:37.547Z,1.40
2022-12-27T21:20:11.108Z,1.40
2022-12-27T21:22:39.334Z,1.40
2022-12-27T21:25:07.949Z,1.30
2022-12-27T21:27:36.048Z,1.40
2022-12-27T21:30:04.858Z,1.40
2022-12-27T21:32:33.390Z,1.40
2022-12-27T21:35:01.496Z,1.50
2022-12-27T21:37:32.667Z,1.20
2022-12-27T21:40:00.912Z,1.30
2022-12-27T21:42:29.378Z,1.30
2022-12-27T21:44:57.621Z,1.30
2022-12-27T21:47:26.201Z,1.20
2022-12-27T21:49:54.403Z,1.20
2022-12-27T21:52:22.681Z,1.30
2022-12-27T21:54:52.598Z,1.00
2022-12-27T21:57:20.888Z,1.30
2022-12-27T21:59:49.152Z,1.10
2022-12-27T22:02:20.379Z,0.70
2022-12-27T22:04:48.553Z,2.40
2022-12-27T22:07:17.078Z,3.30
2022-12-27T22:09:45.319Z,2.40
2022-12-27T22:12:15.079Z,2.10
2022-12-27T22:14:44.342Z,1.80
2022-12-27T22:17:12.620Z,1.60
2022-12-27T22:19:40.797Z,1.50
2022-12-27T22:22:09.484Z,1.40
2022-12-27T22:24:38.167Z,1.50
2022-12-27T22:27:12.497Z,1.20
2022-12-27T22:29:42.178Z,1.00
2022-12-27T22:32:10.586Z,1.20
2022-12-27T22:34:38.850Z,1.20
2022-12-27T22:37:16.473Z,1.00
2022-12-27T22:39:44.731Z,1.00
2022-12-27T22:42:13.707Z,1.00
2022-12-27T22:44:43.783Z,0.90
2022-12-27T22:47:28.376Z,0.70
2022-12-27T22:49:57.368Z,0.80
2022-12-27T22:52:25.906Z,0.70
2022-12-27T22:55:04.325Z,0.80
2022-12-27T22:57:35.839Z,0.60
2022-12-27T23:00:06.009Z,0.70
2022-12-27T23:02:37.190Z,0.60
2022-12-27T23:05:05.947Z,0.70
2022-12-27T23:08:04.194Z,0.70
2022-12-27T23:10:23.131Z,0.50
2022-12-27T23:12:51.715Z,0.50
2022-12-27T23:15:21.635Z,0.40
2022-12-27T23:17:50.624Z,0.40
2022-12-27T23:20:21.751Z,0.30
2022-12-27T23:22:50.196Z,0.40
2022-12-27T23:25:18.526Z,0.50
2022-12-27T23:27:47.035Z,0.40
2022-12-27T23:30:16.095Z,0.30
2022-12-27T23:32:46.125Z,0.40
2022-12-27T23:35:14.760Z,0.40
2022-12-27T23:37:43.088Z,0.40
2022-12-27T23:40:12.901Z,0.60
2022-12-27T23:42:40.989Z,0.40
2022-12-27T23:45:10.661Z,0.40
2022-12-27T23:47:39.070Z,0.40
2022-12-27T23:50:09.898Z,0.40
2022-12-27T23:52:38.131Z,0.50
2022-12-27T23:55:07.484Z,0.70
2022-12-27T23:57:38.519Z,0.60
